Time;durP1;ratioP1;P1;durP2;ratioP2;P2;SDS_P1;SDS_P2;PMS_P1;PMS_P2;Temp;Humidity;BMP_temperature;BMP_pressure;BME280_temperature;BME280_humidity;BME280_pressure;Samples;Min_cycle;Max_cycle;Signal;HPM_P1;HPM_P2
2023/08/25 00:01:10;;;;;;;2.03;1.50;;;25.30;91.90;;;;;;4958670;29;20456;-96
2023/08/25 00:03:41;;;;;;;1.50;1.40;;;25.30;91.90;;;;;;4957976;28;20480;-96
2023/08/25 00:06:11;;;;;;;1.87;1.73;;;25.10;91.80;;;;;;4957872;29;20446;-96
2023/08/25 00:08:47;;;;;;;1.77;1.43;;;25.30;91.90;;;;;;4959097;29;20455;-96
2023/08/25 00:11:19;;;;;;;2.03;1.70;;;25.30;91.90;;;;;;4957996;29;20452;-96
2023/08/25 00:13:48;;;;;;;2.70;1.50;;;25.30;91.90;;;;;;4958146;29;20456;-96
2023/08/25 00:16:20;;;;;;;1.80;1.70;;;25.30;91.90;;;;;;4958382;29;20465;-96
2023/08/25 00:18:51;;;;;;;1.47;1.37;;;25.30;91.80;;;;;;4958838;29;20453;-96
2023/08/25 00:21:22;;;;;;;1.73;1.50;;;25.30;91.80;;;;;;4958749;29;20469;-96
2023/08/25 00:23:52;;;;;;;1.80;1.70;;;25.30;91.90;;;;;;4957888;29;20485;-96
2023/08/25 00:26:21;;;;;;;1.63;1.50;;;25.30;91.80;;;;;;4957891;29;20941;-96
2023/08/25 00:28:56;;;;;;;2.33;1.70;;;25.30;91.80;;;;;;4958263;29;20464;-95
2023/08/25 00:31:25;;;;;;;1.83;1.67;;;25.30;91.80;;;;;;4958527;29;20540;-96
2023/08/25 00:33:54;;;;;;;1.67;1.57;;;25.30;91.80;;;;;;4957402;29;20474;-95
2023/08/25 00:36:26;;;;;;;1.50;1.33;;;25.30;92.20;;;;;;4958080;29;20477;-96
2023/08/25 00:38:54;;;;;;;1.83;1.70;;;25.20;91.80;;;;;;4957695;29;20454;-96
2023/08/25 00:41:24;;;;;;;2.33;1.50;;;25.30;91.80;;;;;;4958407;29;20517;-95
2023/08/25 00:43:55;;;;;;;2.03;1.40;;;25.20;91.80;;;;;;4956971;29;20482;-95
2023/08/25 00:46:24;;;;;;;1.80;1.70;;;25.30;91.80;;;;;;4958428;29;20456;-95
2023/08/25 00:48:52;;;;;;;1.90;1.80;;;25.20;91.80;;;;;;4957950;29;21013;-95
2023/08/25 00:51:22;;;;;;;1.90;1.73;;;25.20;91.80;;;;;;4957289;29;20528;-96
2023/08/25 00:54:07;;;;;;;3.00;1.80;;;25.20;91.80;;;;;;4957654;29;20459;-95
2023/08/25 00:56:38;;;;;;;1.90;1.80;;;25.20;91.80;;;;;;4957709;29;20468;-94
2023/08/25 00:59:09;;;;;;;1.83;1.73;;;25.20;91.80;;;;;;4958192;29;20480;-95
2023/08/25 01:01:41;;;;;;;1.53;1.43;;;25.20;91.80;;;;;;4958064;29;20457;-94
2023/08/25 01:04:11;;;;;;;2.43;1.30;;;25.20;91.70;;;;;;4957456;29;20481;-95
2023/08/25 01:06:40;;;;;;;1.90;1.80;;;25.20;91.70;;;;;;4957260;29;20942;-95
2023/08/25 01:09:22;;;;;;;1.90;1.40;;;25.10;91.70;;;;;;4957079;29;20488;-95
2023/08/25 01:12:01;;;;;;;1.40;1.30;;;25.20;91.70;;;;;;4957349;29;20451;-95
2023/08/25 01:14:43;;;;;;;1.60;1.50;;;25.20;91.70;;;;;;4957380;29;20456;-95
2023/08/25 01:17:26;;;;;;;1.63;1.43;;;25.20;91.70;;;;;;4956683;29;20445;-95
2023/08/25 01:19:59;;;;;;;1.57;1.47;;;25.20;91.70;;;;;;4957681;29;20504;-96
2023/08/25 01:22:36;;;;;;;1.30;1.20;;;25.20;91.70;;;;;;4957090;29;20448;-96
2023/08/25 01:25:41;;;;;;;1.70;1.37;;;25.20;91.70;;;;;;4957024;29;20609;-95
2023/08/25 01:28:14;;;;;;;1.60;1.50;;;25.20;91.70;;;;;;4957024;29;20943;-95
2023/08/25 01:30:44;;;;;;;1.60;1.50;;;25.20;91.70;;;;;;4956969;29;20446;-95
2023/08/25 01:33:19;;;;;;;1.97;1.30;;;25.20;91.70;;;;;;4957038;29;20529;-96
2023/08/25 01:35:57;;;;;;;2.00;1.77;;;25.20;92.10;;;;;;4957239;29;20454;-95
2023/08/25 01:38:31;;;;;;;1.83;1.53;;;25.20;91.70;;;;;;4957394;29;20445;-95
2023/08/25 01:41:15;;;;;;;2.00;1.87;;;25.20;91.70;;;;;;4957408;29;20492;-96
2023/08/25 01:43:52;;;;;;;1.40;1.30;;;25.20;91.70;;;;;;4956754;29;20476;-95
2023/08/25 01:46:23;;;;;;;1.90;1.57;;;25.10;91.70;;;;;;4956384;29;20454;-95
2023/08/25 01:48:58;;;;;;;1.67;1.43;;;25.10;91.60;;;;;;4957278;29;20497;-95
2023/08/25 01:51:29;;;;;;;1.47;1.20;;;25.20;91.70;;;;;;4956291;29;20476;-95
2023/08/25 01:53:58;;;;;;;1.70;1.60;;;25.20;91.70;;;;;;4955985;29;20540;-95
2023/08/25 01:56:28;;;;;;;1.43;1.33;;;25.20;91.70;;;;;;4956680;29;20457;-95
2023/08/25 01:58:55;;;;;;;1.40;1.20;;;25.20;91.70;;;;;;4956774;29;20449;-95
2023/08/25 02:01:22;;;;;;;1.60;1.50;;;25.20;91.70;;;;;;4957040;29;20445;-96
2023/08/25 02:03:52;;;;;;;1.60;1.50;;;25.20;91.70;;;;;;4956549;29;20559;-95
2023/08/25 02:06:22;;;;;;;1.70;1.50;;;25.20;91.70;;;;;;4957158;29;20548;-95
2023/08/25 02:08:51;;;;;;;1.90;1.80;;;25.20;91.70;;;;;;4956998;29;20480;-96
2023/08/25 02:11:18;;;;;;;1.67;1.30;;;25.20;91.70;;;;;;4956806;29;20485;-95
2023/08/25 02:13:52;;;;;;;1.80;1.70;;;25.20;91.70;;;;;;4955645;29;20463;-95
2023/08/25 02:16:22;;;;;;;1.57;1.47;;;25.20;91.70;;;;;;4956306;29;20933;-95
2023/08/25 02:18:49;;;;;;;2.10;1.53;;;25.20;91.70;;;;;;4956474;29;20457;-95
2023/08/25 02:21:24;;;;;;;1.60;1.50;;;25.20;91.70;;;;;;4955950;29;20864;-95
2023/08/25 02:23:59;;;;;;;1.63;1.50;;;25.20;91.70;;;;;;4956439;29;20482;-95
2023/08/25 02:26:32;;;;;;;1.70;1.60;;;25.10;91.60;;;;;;4956062;29;20511;-95
2023/08/25 02:29:16;;;;;;;1.63;1.53;;;25.20;91.70;;;;;;4955732;29;20511;-95
2023/08/25 02:31:45;;;;;;;1.40;1.30;;;25.20;91.70;;;;;;4956301;29;20445;-95
2023/08/25 02:34:15;;;;;;;2.43;1.40;;;25.20;91.70;;;;;;4955476;29;20524;-95
2023/08/25 02:36:48;;;;;;;1.50;1.40;;;25.20;91.60;;;;;;4955979;29;20507;-95
2023/08/25 02:39:20;;;;;;;1.97;1.87;;;25.20;91.60;;;;;;4955768;29;20457;-95
2023/08/25 02:41:47;;;;;;;1.73;1.60;;;25.20;91.60;;;;;;4956569;29;20517;-95
2023/08/25 02:44:15;;;;;;;1.63;1.40;;;25.00;91.60;;;;;;4955665;29;20473;-95
2023/08/25 02:46:46;;;;;;;1.87;1.40;;;25.10;91.60;;;;;;4955894;29;20557;-95
2023/08/25 02:49:18;;;;;;;1.80;1.70;;;25.20;91.60;;;;;;4955495;29;20540;-95
2023/08/25 02:51:48;;;;;;;1.33;1.23;;;25.00;91.90;;;;;;4955855;29;20846;-96
2023/08/25 02:54:25;;;;;;;1.60;1.40;;;25.20;91.60;;;;;;4956097;29;20516;-96
2023/08/25 02:57:01;;;;;;;1.40;1.30;;;25.10;91.60;;;;;;4956596;29;20436;-95
2023/08/25 02:59:37;;;;;;;1.50;1.30;;;25.00;91.50;;;;;;4956184;29;20453;-95
2023/08/25 03:02:04;;;;;;;1.80;1.70;;;25.10;91.60;;;;;;4956170;29;20473;-95
2023/08/25 03:04:35;;;;;;;1.70;1.60;;;25.10;91.60;;;;;;4955373;29;20817;-96
2023/08/25 03:07:02;;;;;;;2.30;1.63;;;25.10;91.60;;;;;;4955704;29;20452;-95
2023/08/25 03:09:33;;;;;;;1.77;1.67;;;25.10;91.60;;;;;;4955567;29;20472;-95
2023/08/25 03:15:29;;;;;;;1.70;1.53;;;25.10;91.50;;;;;;4955209;29;20401;-95
2023/08/25 03:18:00;;;;;;;1.57;1.47;;;25.10;91.60;;;;;;4956123;29;20927;-95
2023/08/25 03:20:29;;;;;;;2.13;1.90;;;25.10;91.60;;;;;;4955978;29;20450;-96
2023/08/25 03:23:00;;;;;;;1.50;1.40;;;25.10;91.60;;;;;;4955933;29;20882;-95
2023/08/25 03:25:27;;;;;;;1.90;1.70;;;25.10;91.60;;;;;;4955608;29;20485;-96
2023/08/25 03:27:57;;;;;;;1.67;1.53;;;25.10;91.50;;;;;;4955372;29;20517;-95
2023/08/25 03:30:25;;;;;;;1.60;1.50;;;25.10;91.50;;;;;;4955347;29;20985;-96
2023/08/25 03:32:56;;;;;;;2.13;1.60;;;25.10;91.50;;;;;;4955123;29;20473;-96
2023/08/25 03:35:28;;;;;;;1.67;1.57;;;25.10;91.50;;;;;;4954918;29;20457;-96
2023/08/25 03:37:57;;;;;;;1.80;1.70;;;25.10;91.50;;;;;;4955883;28;20434;-96
2023/08/25 03:43:11;;;;;;;1.50;1.37;;;25.10;91.50;;;;;;4957277;29;20505;-96
2023/08/25 03:45:40;;;;;;;1.73;1.60;;;25.10;91.50;;;;;;4958999;29;20488;-95
2023/08/25 03:48:14;;;;;;;1.70;1.50;;;25.10;91.50;;;;;;4959064;29;20935;-95
2023/08/25 03:50:47;;;;;;;1.57;1.47;;;25.10;91.50;;;;;;4959147;29;20457;-95
2023/08/25 03:53:14;;;;;;;1.73;1.20;;;25.10;91.50;;;;;;4958491;29;20813;-95
2023/08/25 03:55:41;;;;;;;1.50;1.40;;;25.00;91.50;;;;;;4958514;29;20455;-95
2023/08/25 03:58:13;;;;;;;1.30;1.20;;;25.10;91.50;;;;;;4958308;29;20938;-95
2023/08/25 04:00:42;;;;;;;1.70;1.60;;;25.10;91.50;;;;;;4958593;29;20452;-96
2023/08/25 04:03:13;;;;;;;1.77;1.67;;;25.10;91.50;;;;;;4958596;29;20465;-94
2023/08/25 04:05:40;;;;;;;1.67;1.57;;;25.10;91.50;;;;;;4958061;29;20489;-96
2023/08/25 04:08:10;;;;;;;1.30;1.20;;;25.10;91.50;;;;;;4957827;29;20477;-95
2023/08/25 04:10:40;;;;;;;1.47;1.37;;;25.10;91.50;;;;;;4957583;29;20451;-95
2023/08/25 04:13:07;;;;;;;1.60;1.50;;;25.10;91.50;;;;;;4958900;29;20548;-95
2023/08/25 04:15:35;;;;;;;2.27;2.07;;;25.10;91.50;;;;;;4958643;29;20449;-95
2023/08/25 04:18:04;;;;;;;1.63;1.53;;;25.10;91.50;;;;;;4957972;29;20497;-96
2023/08/25 04:20:39;;;;;;;1.90;1.80;;;25.10;91.40;;;;;;4958138;29;20456;-95
2023/08/25 04:23:06;;;;;;;3.10;1.90;;;25.10;91.40;;;;;;4960298;29;20483;-93
2023/08/25 04:25:33;;;;;;;1.83;1.73;;;25.10;91.40;;;;;;4959493;29;20540;-95
2023/08/25 04:28:00;;;;;;;2.07;1.73;;;25.00;91.40;;;;;;4958366;29;20857;-94
2023/08/25 04:30:27;;;;;;;2.20;1.93;;;25.10;91.40;;;;;;4957499;29;20455;-94
2023/08/25 04:32:54;;;;;;;2.13;1.87;;;25.00;91.40;;;;;;4957087;29;20943;-95
2023/08/25 04:35:22;;;;;;;2.73;1.83;;;25.00;91.40;;;;;;4957537;29;20536;-95
2023/08/25 04:37:50;;;;;;;3.93;1.97;;;25.00;91.40;;;;;;4957325;29;20516;-94
2023/08/25 04:40:18;;;;;;;4.30;2.57;;;25.10;91.40;;;;;;4957485;29;20481;-94
2023/08/25 04:42:45;;;;;;;3.80;3.47;;;25.10;91.10;;;;;;4957403;29;20481;-94
2023/08/25 04:45:14;;;;;;;3.33;2.63;;;25.00;90.90;;;;;;4957588;29;20490;-94
2023/08/25 04:47:41;;;;;;;3.50;2.90;;;24.90;90.90;;;;;;4957175;29;20461;-93
2023/08/25 04:50:09;;;;;;;3.60;3.30;;;24.80;91.00;;;;;;4956693;28;20872;-96
2023/08/25 04:52:37;;;;;;;6.77;3.93;;;24.70;91.10;;;;;;4957554;29;20453;-93
2023/08/25 04:55:05;;;;;;;3.73;3.33;;;24.60;91.20;;;;;;4957258;29;20469;-93
2023/08/25 04:57:34;;;;;;;6.33;3.57;;;24.50;91.30;;;;;;4957205;29;20481;-94
2023/08/25 05:00:03;;;;;;;6.07;3.10;;;24.50;91.40;;;;;;4957300;29;20540;-93
2023/08/25 05:02:29;;;;;;;3.90;3.60;;;24.40;91.50;;;;;;4957303;29;20527;-94
2023/08/25 05:04:57;;;;;;;3.30;3.00;;;24.40;91.60;;;;;;4957034;29;20471;-93
2023/08/25 05:07:23;;;;;;;6.37;3.77;;;24.40;91.70;;;;;;4957910;29;20458;-93
2023/08/25 05:09:53;;;;;;;5.07;3.73;;;24.30;91.80;;;;;;4956647;29;21029;-94
2023/08/25 05:12:20;;;;;;;9.13;4.17;;;24.20;91.80;;;;;;4956743;29;20810;-94
2023/08/25 05:14:47;;;;;;;5.07;3.10;;;24.20;91.90;;;;;;4956880;29;20453;-95
2023/08/25 05:17:14;;;;;;;2.93;2.73;;;24.20;92.00;;;;;;4956833;29;20481;-93
2023/08/25 05:19:41;;;;;;;6.17;3.67;;;24.20;92.20;;;;;;4956864;29;20485;-95
2023/08/25 05:22:08;;;;;;;4.93;3.77;;;24.10;92.20;;;;;;4956340;29;20449;-94
2023/08/25 05:24:35;;;;;;;5.13;3.57;;;24.10;92.30;;;;;;4956581;29;20540;-94
2023/08/25 05:27:03;;;;;;;4.30;3.70;;;24.10;92.40;;;;;;4956088;29;20499;-91
2023/08/25 05:29:30;;;;;;;5.40;4.23;;;24.10;92.50;;;;;;4945441;29;20444;-90
2023/08/25 05:31:57;;;;;;;6.17;4.23;;;24.10;92.60;;;;;;4937075;29;20539;-93
2023/08/25 05:34:31;;;;;;;5.20;3.57;;;24.10;92.70;;;;;;4937739;29;20463;-93
2023/08/25 05:36:59;;;;;;;4.77;4.27;;;24.10;92.80;;;;;;4937971;29;20439;-93
2023/08/25 05:39:26;;;;;;;5.20;4.67;;;24.10;92.90;;;;;;4937924;29;20453;-93
2023/08/25 05:41:53;;;;;;;5.40;4.70;;;24.10;93.00;;;;;;4936952;29;20480;-93
2023/08/25 05:44:21;;;;;;;6.33;5.03;;;24.10;93.00;;;;;;4937302;29;20520;-93
2023/08/25 05:46:48;;;;;;;5.67;4.80;;;24.10;93.20;;;;;;4936660;29;20529;-93
2023/08/25 05:49:15;;;;;;;10.30;4.83;;;24.10;93.30;;;;;;4936863;29;20452;-94
2023/08/25 05:51:42;;;;;;;3.60;3.30;;;24.10;93.40;;;;;;4937052;29;20944;-93
2023/08/25 05:54:10;;;;;;;6.40;3.97;;;24.10;93.30;;;;;;4936774;29;20444;-93
2023/08/25 05:56:37;;;;;;;4.17;3.47;;;24.10;93.20;;;;;;4937300;29;20452;-95
2023/08/25 05:59:03;;;;;;;3.63;3.10;;;24.20;93.10;;;;;;4936557;29;20491;-93
2023/08/25 06:01:32;;;;;;;3.37;3.10;;;24.30;92.90;;;;;;4937361;29;20454;-93
2023/08/25 06:03:59;;;;;;;3.93;3.10;;;24.40;92.80;;;;;;4936416;29;20551;-95
2023/08/25 06:06:26;;;;;;;3.97;2.70;;;24.40;92.70;;;;;;4936367;29;21032;-93
2023/08/25 06:08:54;;;;;;;2.60;2.40;;;24.50;92.60;;;;;;4936886;29;20591;-92
2023/08/25 06:11:21;;;;;;;3.00;2.80;;;24.50;92.50;;;;;;4936718;29;20457;-93
2023/08/25 06:13:47;;;;;;;5.53;3.10;;;24.50;92.40;;;;;;4936573;29;20541;-93
2023/08/25 06:16:14;;;;;;;2.70;2.50;;;24.60;92.40;;;;;;4936850;29;20510;-95
2023/08/25 06:18:43;;;;;;;2.40;2.13;;;24.60;92.30;;;;;;4936856;29;20534;-92
2023/08/25 06:21:10;;;;;;;4.13;2.83;;;24.70;92.20;;;;;;4936710;29;20454;-93
2023/08/25 06:23:37;;;;;;;3.40;3.10;;;24.70;92.20;;;;;;4936706;29;20454;-93
2023/08/25 06:26:04;;;;;;;6.53;2.40;;;24.70;92.10;;;;;;4936239;29;20571;-93
2023/08/25 06:28:32;;;;;;;3.40;2.67;;;24.70;92.10;;;;;;4936741;29;20780;-92
2023/08/25 06:31:00;;;;;;;4.20;2.63;;;24.70;92.00;;;;;;4936354;29;20496;-94
2023/08/25 06:33:29;;;;;;;2.90;2.57;;;24.80;92.40;;;;;;4936032;29;20481;-95
2023/08/25 06:35:58;;;;;;;2.43;2.23;;;24.80;92.00;;;;;;4936062;29;20942;-92
2023/08/25 06:38:25;;;;;;;5.17;2.77;;;24.80;92.00;;;;;;4936414;29;20899;-92
2023/08/25 06:40:53;;;;;;;3.87;2.87;;;24.80;92.30;;;;;;4936406;29;20481;-93
2023/08/25 06:43:21;;;;;;;3.10;2.60;;;24.80;91.90;;;;;;4935918;29;20564;-92
2023/08/25 06:45:47;;;;;;;2.77;2.33;;;24.80;91.90;;;;;;4936402;29;20492;-93
2023/08/25 06:48:14;;;;;;;2.53;2.00;;;24.80;91.80;;;;;;4936462;29;20456;-93
2023/08/25 06:50:41;;;;;;;2.80;2.60;;;24.90;91.90;;;;;;4936068;29;20466;-92
2023/08/25 06:53:09;;;;;;;2.37;2.17;;;24.90;91.90;;;;;;4936231;29;20552;-93
2023/08/25 06:55:36;;;;;;;2.60;2.40;;;24.90;91.80;;;;;;4936113;29;20545;-93
2023/08/25 06:58:05;;;;;;;2.30;2.03;;;24.90;91.90;;;;;;4936073;29;21017;-95
2023/08/25 07:00:32;;;;;;;2.30;2.10;;;24.90;91.90;;;;;;4936232;29;20455;-92
2023/08/25 07:03:00;;;;;;;2.20;2.00;;;24.90;91.80;;;;;;4936187;29;20465;-93
2023/08/25 07:05:27;;;;;;;3.43;2.30;;;25.00;91.80;;;;;;4936674;29;20500;-93
2023/08/25 07:07:53;;;;;;;3.20;2.20;;;25.00;91.80;;;;;;4936128;29;20806;-95
2023/08/25 07:10:22;;;;;;;3.00;2.47;;;25.00;91.90;;;;;;4936154;29;20449;-93
2023/08/25 07:12:49;;;;;;;2.37;2.17;;;25.00;91.80;;;;;;4936192;29;20482;-93
2023/08/25 07:15:16;;;;;;;2.70;2.37;;;25.00;91.80;;;;;;4938983;29;20464;-93
2023/08/25 07:17:43;;;;;;;2.57;2.37;;;25.00;91.80;;;;;;4940276;29;20458;-93
2023/08/25 07:20:11;;;;;;;2.50;2.30;;;25.00;91.80;;;;;;4940406;29;20550;-93
2023/08/25 07:22:38;;;;;;;3.97;2.33;;;25.00;91.80;;;;;;4939416;29;20446;-94
2023/08/25 07:25:06;;;;;;;2.30;2.10;;;25.00;91.80;;;;;;4940316;29;20450;-95
2023/08/25 07:27:35;;;;;;;2.27;2.07;;;25.00;91.80;;;;;;4939274;29;20493;-93
2023/08/25 07:30:03;;;;;;;2.17;1.97;;;25.00;91.70;;;;;;4939483;29;20454;-95
2023/08/25 07:32:30;;;;;;;2.63;2.00;;;25.00;91.70;;;;;;4940147;29;20538;-95
2023/08/25 07:34:57;;;;;;;3.37;2.70;;;25.00;91.80;;;;;;4940007;29;20533;-93
2023/08/25 07:37:25;;;;;;;2.20;2.00;;;25.00;91.80;;;;;;4939257;29;20543;-91
2023/08/25 07:39:53;;;;;;;3.60;2.57;;;25.00;91.80;;;;;;4940450;29;20844;-93
2023/08/25 07:42:21;;;;;;;3.33;2.43;;;25.00;91.80;;;;;;4939199;29;20534;-92
2023/08/25 07:44:50;;;;;;;5.33;3.37;;;25.00;92.20;;;;;;4939180;29;20454;-93
2023/08/25 07:47:16;;;;;;;2.87;2.67;;;25.00;92.60;;;;;;4939316;29;20855;-93
2023/08/25 07:49:43;;;;;;;4.97;3.60;;;25.00;93.10;;;;;;4939068;29;20475;-95
2023/08/25 07:52:10;;;;;;;4.03;3.63;;;25.00;93.50;;;;;;4939029;29;20460;-93
2023/08/25 07:54:37;;;;;;;5.03;4.50;;;25.00;93.70;;;;;;4939199;29;20462;-93
2023/08/25 07:57:05;;;;;;;6.03;3.93;;;25.00;93.90;;;;;;4938811;29;20461;-93
2023/08/25 07:59:31;;;;;;;3.73;3.43;;;25.00;94.10;;;;;;4938925;29;20451;-92
2023/08/25 08:02:00;;;;;;;4.00;3.60;;;25.00;94.10;;;;;;4938778;29;20454;-93
2023/08/25 08:04:27;;;;;;;4.20;3.20;;;25.00;94.00;;;;;;4939025;29;20552;-95
2023/08/25 08:06:55;;;;;;;3.60;3.10;;;24.90;94.00;;;;;;4939017;29;20947;-94
2023/08/25 08:09:22;;;;;;;4.47;3.53;;;24.90;94.20;;;;;;4921773;29;20534;-94
2023/08/25 08:11:49;;;;;;;6.93;4.40;;;24.90;94.40;;;;;;4938418;29;20626;-94
2023/08/25 08:14:15;;;;;;;5.27;4.17;;;24.90;94.50;;;;;;4938964;29;20538;-95
2023/08/25 08:16:42;;;;;;;7.53;3.97;;;24.90;94.70;;;;;;4938966;29;20454;-94
2023/08/25 08:19:12;;;;;;;7.13;4.10;;;24.90;94.80;;;;;;4938612;29;20541;-94
2023/08/25 08:21:39;;;;;;;4.73;4.07;;;24.90;95.00;;;;;;4938425;29;20451;-95
2023/08/25 08:24:06;;;;;;;9.80;3.93;;;24.90;95.10;;;;;;4938686;29;20456;-96
2023/08/25 08:26:33;;;;;;;4.40;4.00;;;24.90;95.10;;;;;;4938596;29;20510;-95
2023/08/25 08:29:00;;;;;;;7.30;3.70;;;24.80;95.00;;;;;;4938507;29;20490;-96
2023/08/25 08:31:41;;;;;;;4.30;3.73;;;24.80;95.00;;;;;;4938481;29;20872;-94
2023/08/25 08:34:08;;;;;;;3.93;3.60;;;24.80;95.10;;;;;;4938598;29;20473;-96
2023/08/25 08:36:36;;;;;;;6.03;3.20;;;24.80;95.10;;;;;;4938471;29;20483;-95
2023/08/25 08:39:04;;;;;;;4.17;3.53;;;24.80;95.10;;;;;;4939311;29;20782;-96
2023/08/25 08:41:32;;;;;;;6.63;3.53;;;24.80;95.10;;;;;;4938059;29;20461;-95
2023/08/25 08:44:01;;;;;;;7.43;3.23;;;24.80;95.10;;;;;;4938388;29;20509;-96
2023/08/25 08:46:32;;;;;;;4.33;3.70;;;24.80;95.20;;;;;;4938086;29;20526;-94
2023/08/25 08:48:59;;;;;;;3.77;3.37;;;24.80;95.10;;;;;;4938298;29;20543;-96
2023/08/25 08:51:26;;;;;;;5.50;3.50;;;24.80;95.10;;;;;;4938517;29;20508;-95
2023/08/25 08:53:55;;;;;;;8.07;3.77;;;24.80;95.20;;;;;;4937832;29;20507;-95
2023/08/25 08:56:22;;;;;;;6.50;4.10;;;24.80;95.20;;;;;;4938668;29;20508;-96
2023/08/25 08:58:49;;;;;;;5.83;4.00;;;24.80;95.30;;;;;;4937798;29;20496;-96
2023/08/25 09:01:17;;;;;;;4.83;4.00;;;24.70;95.30;;;;;;4938110;29;20891;-95
2023/08/25 09:03:47;;;;;;;9.50;4.47;;;24.70;95.40;;;;;;4937796;29;20474;-95
2023/08/25 09:06:14;;;;;;;7.63;3.67;;;24.70;95.40;;;;;;4937896;29;20457;-95
2023/08/25 09:08:43;;;;;;;5.93;3.90;;;24.70;95.60;;;;;;4938688;29;20454;-96
2023/08/25 09:11:11;;;;;;;9.47;4.10;;;24.70;95.70;;;;;;4937844;29;20842;-96
2023/08/25 09:13:38;;;;;;;7.90;3.87;;;24.70;95.70;;;;;;4937950;29;20960;-95
2023/08/25 09:16:12;;;;;;;5.10;3.43;;;24.70;95.70;;;;;;4937292;29;20515;-96
2023/08/25 09:18:40;;;;;;;7.67;4.20;;;24.70;95.80;;;;;;4937491;29;20421;-95
2023/08/25 09:21:17;;;;;;;4.47;3.60;;;24.70;95.80;;;;;;4937282;29;20454;-94
2023/08/25 09:23:52;;;;;;;5.53;3.53;;;24.70;95.90;;;;;;4938012;29;20517;-96
2023/08/25 09:26:21;;;;;;;5.20;3.57;;;24.70;96.00;;;;;;4937839;29;20442;-94
2023/08/25 09:28:48;;;;;;;4.73;3.37;;;24.70;96.00;;;;;;4937474;29;20453;-95
2023/08/25 09:31:22;;;;;;;3.17;2.87;;;24.70;96.10;;;;;;4937970;29;20488;-94
2023/08/25 09:33:51;;;;;;;5.07;3.80;;;24.70;96.10;;;;;;4937205;29;20504;-94
2023/08/25 09:36:18;;;;;;;9.43;4.47;;;24.80;96.20;;;;;;4937262;29;20537;-94
2023/08/25 09:38:46;;;;;;;3.90;3.50;;;24.80;96.70;;;;;;4938034;29;20840;-96
2023/08/25 09:41:22;;;;;;;6.33;3.60;;;24.80;96.40;;;;;;4937418;29;20447;-94
2023/08/25 09:43:52;;;;;;;4.47;3.27;;;24.80;96.50;;;;;;4937145;29;21056;-94
2023/08/25 09:46:26;;;;;;;7.80;4.10;;;24.80;96.50;;;;;;4937886;29;20456;-94
2023/08/25 09:48:53;;;;;;;4.67;3.83;;;24.80;96.40;;;;;;4937867;29;20461;-94
2023/08/25 09:51:21;;;;;;;7.20;4.30;;;24.80;96.50;;;;;;4937113;29;20863;-94
2023/08/25 09:53:50;;;;;;;4.07;3.67;;;24.80;96.50;;;;;;4937420;29;20951;-94
2023/08/25 09:56:17;;;;;;;4.90;4.07;;;24.80;96.40;;;;;;4937159;29;20458;-95
2023/08/25 09:58:44;;;;;;;7.53;4.20;;;24.80;96.40;;;;;;4937435;29;20564;-94
2023/08/25 10:01:13;;;;;;;5.50;4.00;;;24.80;96.50;;;;;;4937246;29;20545;-96
2023/08/25 10:03:40;;;;;;;5.27;4.40;;;24.80;96.60;;;;;;4937060;29;20559;-96
2023/08/25 10:06:08;;;;;;;6.03;3.90;;;24.80;96.70;;;;;;4937135;29;20514;-95
2023/08/25 10:08:35;;;;;;;4.43;3.43;;;24.80;96.70;;;;;;4936502;29;20490;-96
2023/08/25 10:11:04;;;;;;;5.63;3.80;;;24.80;96.70;;;;;;4936633;29;20564;-96
2023/08/25 10:13:32;;;;;;;6.37;4.13;;;24.80;96.70;;;;;;4936776;29;20454;-93
2023/08/25 10:16:04;;;;;;;4.93;4.20;;;24.80;96.70;;;;;;4936832;29;20549;-95
2023/08/25 10:18:37;;;;;;;4.63;3.87;;;24.80;96.70;;;;;;4936865;29;20527;-95
2023/08/25 10:21:06;;;;;;;5.43;4.10;;;24.80;96.70;;;;;;4936393;29;20437;-92
2023/08/25 10:23:35;;;;;;;4.87;3.63;;;24.70;96.70;;;;;;4936758;29;20443;-92
2023/08/25 10:26:03;;;;;;;5.93;3.80;;;24.70;96.70;;;;;;4936584;29;20541;-95
2023/08/25 10:28:31;;;;;;;9.80;3.83;;;24.70;96.60;;;;;;4936630;29;20540;-96
2023/08/25 10:30:59;;;;;;;11.53;4.10;;;24.70;96.50;;;;;;4936626;29;20488;-92
2023/08/25 10:33:26;;;;;;;6.80;3.50;;;24.70;96.50;;;;;;4936478;29;20468;-92
2023/08/25 10:35:55;;;;;;;6.10;3.43;;;24.70;96.50;;;;;;4936195;29;20480;-96
2023/08/25 10:38:35;;;;;;;4.30;3.80;;;24.70;96.50;;;;;;4936591;29;20546;-92
2023/08/25 10:41:13;;;;;;;4.07;3.60;;;24.70;96.40;;;;;;4937387;29;20431;-95
2023/08/25 10:43:42;;;;;;;5.73;3.13;;;24.80;96.50;;;;;;4937110;29;20488;-92
2023/08/25 10:46:10;;;;;;;5.57;3.70;;;24.70;96.30;;;;;;4936259;29;20770;-92
2023/08/25 10:48:38;;;;;;;4.83;3.00;;;24.70;96.00;;;;;;4937158;29;20516;-96
2023/08/25 10:51:11;;;;;;;3.60;2.63;;;24.80;95.60;;;;;;4940393;29;20512;-96
2023/08/25 10:53:39;;;;;;;3.00;2.40;;;24.80;95.20;;;;;;4941246;29;20844;-95
2023/08/25 10:56:15;;;;;;;3.70;2.40;;;24.80;94.90;;;;;;4939997;29;20454;-96
2023/08/25 10:58:41;;;;;;;2.77;2.50;;;24.80;94.80;;;;;;4940555;29;20433;-93
2023/08/25 11:01:17;;;;;;;3.80;2.43;;;24.80;94.70;;;;;;4944558;29;20456;-94
2023/08/25 11:04:05;;;;;;;4.87;3.40;;;24.80;94.70;;;;;;4942107;29;20551;-94
2023/08/25 11:06:42;;;;;;;3.60;2.63;;;24.90;94.90;;;;;;4940725;29;20518;-93
2023/08/25 11:09:10;;;;;;;3.17;2.70;;;24.90;94.60;;;;;;4939948;29;20934;-90
2023/08/25 11:11:37;;;;;;;2.80;2.60;;;24.80;94.60;;;;;;4940175;29;20452;-96
2023/08/25 11:14:05;;;;;;;4.73;3.00;;;24.80;94.60;;;;;;4940574;29;20797;-96
2023/08/25 11:16:32;;;;;;;3.00;2.80;;;24.90;94.70;;;;;;4941522;29;20444;-94
2023/08/25 11:18:59;;;;;;;2.03;1.93;;;24.90;94.50;;;;;;4939928;29;20533;-91
2023/08/25 11:21:26;;;;;;;4.90;2.43;;;24.90;94.40;;;;;;4940793;29;20454;-93
2023/08/25 11:23:56;;;;;;;3.30;2.30;;;24.90;94.40;;;;;;4940067;29;20452;-92
2023/08/25 11:26:23;;;;;;;2.60;2.00;;;24.90;94.40;;;;;;4944391;29;20509;-93
2023/08/25 11:31:24;;;;;;;3.27;2.33;;;24.90;94.20;;;;;;4897930;29;20502;-92
2023/08/25 11:33:52;;;;;;;2.87;1.87;;;24.90;94.10;;;;;;4882524;29;20594;-91
2023/08/25 11:36:19;;;;;;;2.97;2.30;;;24.90;94.10;;;;;;4883062;29;20449;-91
2023/08/25 11:38:50;;;;;;;2.97;2.27;;;24.90;94.10;;;;;;4882772;29;20551;-93
2023/08/25 11:41:19;;;;;;;5.97;2.63;;;24.90;94.00;;;;;;4886944;29;20468;-94
2023/08/25 11:43:48;;;;;;;2.00;1.73;;;24.90;94.00;;;;;;4884007;29;20510;-90
2023/08/25 11:46:15;;;;;;;4.33;2.50;;;24.90;93.90;;;;;;4883110;29;20453;-94
2023/08/25 11:48:42;;;;;;;5.20;2.67;;;25.00;93.90;;;;;;4882311;29;20519;-93
2023/08/25 11:51:15;;;;;;;3.47;2.23;;;25.00;93.90;;;;;;4882627;29;20863;-93
2023/08/25 11:53:42;;;;;;;2.17;2.00;;;25.00;93.80;;;;;;4882192;29;20452;-92
2023/08/25 11:56:15;;;;;;;2.87;2.00;;;25.00;93.90;;;;;;4883352;29;20449;-93
2023/08/25 11:58:46;;;;;;;2.07;1.90;;;25.00;93.90;;;;;;4883031;29;20456;-93
2023/08/25 12:03:55;;;;;;;2.63;1.90;;;25.00;93.80;;;;;;4979044;23;20497;-93
2023/08/25 12:06:23;;;;;;;2.70;1.93;;;25.00;93.80;;;;;;4942374;29;20434;-95
2023/08/25 12:08:51;;;;;;;2.27;1.67;;;25.00;93.80;;;;;;4939482;29;20998;-95
2023/08/25 12:11:20;;;;;;;2.73;2.10;;;25.00;93.80;;;;;;4940496;29;20459;-95
2023/08/25 12:13:50;;;;;;;3.23;2.37;;;25.00;93.80;;;;;;4939123;29;20945;-95
2023/08/25 12:16:44;;;;;;;2.30;2.10;;;24.90;93.70;;;;;;4942457;29;20553;-96
2023/08/25 12:19:13;;;;;;;7.37;4.97;;;25.00;93.80;;;;;;4946821;23;20585;-96
2023/08/25 12:21:53;;;;;;;9.73;4.70;;;25.10;94.00;;;;;;4943308;29;20461;-94
2023/08/25 12:24:58;;;;;;;11.03;5.00;;;25.10;94.60;;;;;;4948203;29;20947;-95
2023/08/25 12:27:26;;;;;;;14.33;8.43;;;25.10;94.20;;;;;;4939524;29;20576;-96
2023/08/25 12:29:55;;;;;;;12.33;7.00;;;25.10;94.10;;;;;;4938899;29;20933;-93
2023/08/25 12:32:22;;;;;;;10.57;6.83;;;25.10;94.00;;;;;;4939339;29;20873;-96
2023/08/25 12:34:49;;;;;;;9.93;5.83;;;25.10;94.00;;;;;;4938913;29;20879;-93
2023/08/25 12:37:16;;;;;;;11.37;6.30;;;25.10;94.00;;;;;;4939764;29;20526;-96
2023/08/25 12:39:44;;;;;;;9.53;6.37;;;25.10;93.90;;;;;;4940073;29;20576;-95
2023/08/25 12:42:11;;;;;;;11.57;5.70;;;25.10;93.90;;;;;;4953986;23;20525;-93
2023/08/25 12:44:38;;;;;;;8.53;5.10;;;25.10;94.00;;;;;;4930591;29;20474;-93
2023/08/25 12:47:08;;;;;;;9.37;5.80;;;25.10;94.10;;;;;;4936652;29;20462;-94
2023/08/25 12:49:36;;;;;;;8.53;5.10;;;25.20;94.00;;;;;;4921623;29;20496;-94
2023/08/25 12:52:09;;;;;;;12.67;5.10;;;25.20;94.00;;;;;;4921388;29;20539;-96
2023/08/25 12:54:36;;;;;;;7.00;4.83;;;25.20;94.10;;;;;;4944801;23;20561;-95
2023/08/25 12:57:03;;;;;;;8.20;5.17;;;25.20;94.10;;;;;;4910517;29;20956;-92
2023/08/25 12:59:30;;;;;;;11.00;4.40;;;25.20;94.00;;;;;;4913087;29;20527;-93
2023/08/25 13:01:57;;;;;;;7.17;4.53;;;25.20;94.00;;;;;;4918600;29;20467;-91
2023/08/25 13:04:26;;;;;;;6.00;3.57;;;25.20;93.90;;;;;;4918501;29;20526;-91
2023/08/25 13:06:54;;;;;;;8.27;4.90;;;25.20;93.90;;;;;;4920049;29;20492;-91
2023/08/25 13:09:30;;;;;;;8.87;4.47;;;25.20;93.90;;;;;;4921234;29;20581;-96